Time;durP1;ratioP1;P1;durP2;ratioP2;P2;SDS_P1;SDS_P2;PMS_P1;PMS_P2;Temp;Humidity;BMP_temperature;BMP_pressure;BME280_temperature;BME280_humidity;BME280_pressure;Samples;Min_cycle;Max_cycle;Signal;HPM_P1;HPM_P2
2022/07/24 00:02:08;;;;;;;0.00;0.00;;;;;;;22.03;57.18;101974.78;5025158;28;20029;-79
2022/07/24 00:04:34;;;;;;;0.28;0.28;;;;;;;22.05;57.95;101973.75;5030952;28;20029;-79
2022/07/24 00:07:01;;;;;;;0.00;0.00;;;;;;;22.09;57.41;101974.47;5030931;28;20079;-79
2022/07/24 00:09:27;;;;;;;0.00;0.00;;;;;;;22.08;57.72;101973.59;5030546;28;20068;-80
2022/07/24 00:11:53;;;;;;;0.35;0.35;;;;;;;22.08;57.84;101970.00;5030657;28;20101;-80
2022/07/24 00:14:19;;;;;;;0.00;0.00;;;;;;;22.06;57.44;101974.63;5031612;28;20701;-79
2022/07/24 00:16:45;;;;;;;0.10;0.10;;;;;;;22.05;57.54;101973.75;5031540;28;20030;-80
2022/07/24 00:19:12;;;;;;;0.05;0.05;;;;;;;22.02;57.14;101973.03;5031551;28;20025;-79
2022/07/24 00:21:38;;;;;;;0.00;0.00;;;;;;;21.98;57.95;101973.19;5030688;28;20065;-78
2022/07/24 00:24:04;;;;;;;0.00;0.00;;;;;;;21.91;57.63;101962.78;5029952;28;20034;-79
2022/07/24 00:26:30;;;;;;;0.03;0.03;;;;;;;21.88;57.52;101966.50;5031661;28;20029;-79
2022/07/24 00:28:56;;;;;;;0.10;0.10;;;;;;;21.90;58.34;101961.03;5031321;28;20029;-81
2022/07/24 00:31:23;;;;;;;0.10;0.10;;;;;;;21.92;57.64;101968.09;5030453;28;20029;-79
2022/07/24 00:33:49;;;;;;;0.10;0.10;;;;;;;21.92;58.13;101965.41;5031542;28;20104;-79
2022/07/24 00:36:16;;;;;;;0.13;0.13;;;;;;;21.88;57.65;101966.50;5030124;28;20449;-79
2022/07/24 00:38:42;;;;;;;0.30;0.30;;;;;;;21.87;58.21;101974.66;5030216;28;20022;-78
2022/07/24 00:41:08;;;;;;;0.30;0.30;;;;;;;21.84;58.09;101970.28;5030829;28;20121;-79
2022/07/24 00:43:55;;;;;;;0.00;0.00;;;;;;;21.82;57.42;101974.91;5032027;28;20487;-79
2022/07/24 00:46:21;;;;;;;0.10;0.10;;;;;;;21.81;58.07;101975.84;5031110;28;20033;-80
2022/07/24 00:48:47;;;;;;;0.00;0.00;;;;;;;21.79;58.50;101973.25;5030858;28;20128;-79
2022/07/24 00:51:14;;;;;;;0.20;0.20;;;;;;;21.76;57.99;101967.97;5029962;28;20116;-80
2022/07/24 00:53:40;;;;;;;0.73;0.73;;;;;;;21.76;58.21;101969.81;5031230;28;20037;-79
2022/07/24 00:56:06;;;;;;;0.00;0.00;;;;;;;21.74;58.12;101969.88;5031309;28;20029;-79
2022/07/24 00:58:33;;;;;;;0.20;0.20;;;;;;;21.73;58.23;101967.25;5031458;28;20391;-79
2022/07/24 01:00:59;;;;;;;0.10;0.10;;;;;;;21.70;58.55;101972.81;5030098;28;20636;-79
2022/07/24 01:03:28;;;;;;;0.10;0.10;;;;;;;21.68;58.32;101970.16;5030646;28;20040;-80
2022/07/24 01:05:55;;;;;;;0.43;0.43;;;;;;;21.67;58.57;101962.16;5030359;28;20400;-80
2022/07/24 01:08:22;;;;;;;0.10;0.10;;;;;;;21.65;58.56;101963.09;5030752;28;20044;-80
2022/07/24 01:10:48;;;;;;;0.10;0.10;;;;;;;21.64;58.15;101961.34;5030901;28;20481;-80
2022/07/24 01:13:14;;;;;;;0.20;0.20;;;;;;;21.60;57.83;101957.06;5030847;28;20052;-80
2022/07/24 01:15:40;;;;;;;0.63;0.63;;;;;;;21.58;58.27;101964.38;5031262;28;20124;-80
2022/07/24 01:18:07;;;;;;;0.32;0.32;;;;;;;21.56;58.14;101960.88;5031346;28;20029;-80
2022/07/24 01:20:38;;;;;;;0.00;0.00;;;;;;;21.58;58.57;101964.38;5026893;28;20057;-79
2022/07/24 01:23:05;;;;;;;0.10;0.10;;;;;;;21.56;57.95;101950.09;5026423;28;20029;-80
2022/07/24 01:25:32;;;;;;;2.08;0.55;;;;;;;21.54;58.26;101946.56;5030241;28;20037;-79
2022/07/24 01:27:58;;;;;;;0.45;0.45;;;;;;;21.52;58.35;101948.47;5030173;28;20022;-79
2022/07/24 01:30:24;;;;;;;0.00;0.00;;;;;;;21.52;58.47;101952.97;5031181;28;20426;-79
2022/07/24 01:32:50;;;;;;;0.10;0.10;;;;;;;21.49;58.64;101945.91;5030599;28;20403;-79
2022/07/24 01:35:16;;;;;;;0.20;0.20;;;;;;;21.48;58.27;101944.16;5029968;28;20029;-79
2022/07/24 01:37:42;;;;;;;0.40;0.40;;;;;;;21.46;58.42;101940.69;5030199;28;20021;-80
2022/07/24 01:40:09;;;;;;;0.55;0.55;;;;;;;21.45;58.67;101952.41;5030140;28;20048;-79
2022/07/24 01:42:35;;;;;;;0.03;0.03;;;;;;;21.44;58.63;101945.25;5029981;28;20449;-79
2022/07/24 01:45:02;;;;;;;0.10;0.10;;;;;;;21.42;58.44;101945.34;5030797;28;20091;-79
2022/07/24 01:47:28;;;;;;;0.10;0.10;;;;;;;21.43;58.68;101946.19;5030802;28;20041;-80
2022/07/24 01:49:54;;;;;;;0.00;0.00;;;;;;;21.42;58.49;101939.06;5029891;28;20116;-79
2022/07/24 01:52:20;;;;;;;0.30;0.30;;;;;;;21.39;58.73;101947.31;5029717;28;20094;-80
2022/07/24 01:54:47;;;;;;;0.65;0.65;;;;;;;21.37;58.99;101943.81;5030838;28;20083;-80
2022/07/24 01:57:13;;;;;;;0.20;0.20;;;;;;;21.34;59.00;101943.00;5031028;28;20461;-80
2022/07/24 01:59:40;;;;;;;0.57;0.57;;;;;;;21.36;59.12;101942.03;5030826;28;20415;-80
2022/07/24 02:02:06;;;;;;;0.15;0.15;;;;;;;21.34;59.20;101934.91;5028690;28;20036;-78
2022/07/24 02:04:32;;;;;;;0.20;0.20;;;;;;;21.31;58.89;101937.75;5029405;28;20033;-79
2022/07/24 02:06:58;;;;;;;0.15;0.15;;;;;;;21.33;59.06;101938.56;5030339;28;20033;-79
2022/07/24 02:09:25;;;;;;;0.45;0.45;;;;;;;21.33;58.43;101933.19;5029940;28;20029;-79
2022/07/24 02:11:51;;;;;;;0.03;0.03;;;;;;;21.30;58.51;101937.84;5026333;28;20033;-80
2022/07/24 02:14:17;;;;;;;0.50;0.50;;;;;;;21.28;58.77;101924.44;5030845;28;20068;-80
2022/07/24 02:16:44;;;;;;;0.75;0.75;;;;;;;21.29;58.79;101926.16;5033431;28;20052;-79
2022/07/24 02:19:10;;;;;;;0.20;0.20;;;;;;;21.28;58.96;101935.22;5033077;28;20288;-80
2022/07/24 02:21:36;;;;;;;0.70;0.40;;;;;;;21.26;59.14;101937.09;5031846;28;20116;-78
2022/07/24 02:24:03;;;;;;;0.10;0.10;;;;;;;21.25;59.21;101932.66;5033751;28;20038;-78
2022/07/24 02:26:29;;;;;;;0.25;0.20;;;;;;;21.25;59.33;101931.81;5033583;28;20033;-80
2022/07/24 02:28:55;;;;;;;0.63;0.63;;;;;;;21.24;59.07;101922.81;5033520;28;20037;-79
2022/07/24 02:31:22;;;;;;;0.10;0.10;;;;;;;21.23;59.07;101921.06;5033294;28;20546;-80
2022/07/24 02:33:48;;;;;;;0.10;0.10;;;;;;;21.21;58.90;101914.91;5031948;28;20538;-79
2022/07/24 02:36:15;;;;;;;0.08;0.08;;;;;;;21.21;59.12;101916.69;5033002;28;20083;-79
2022/07/24 02:38:42;;;;;;;0.10;0.10;;;;;;;21.20;59.12;101921.22;5033437;28;20100;-79
2022/07/24 02:41:08;;;;;;;0.20;0.20;;;;;;;21.17;59.36;101911.47;5032890;28;20037;-80
2022/07/24 02:43:34;;;;;;;0.10;0.10;;;;;;;21.18;59.27;101917.72;5033679;28;20307;-80
2022/07/24 02:46:01;;;;;;;0.30;0.30;;;;;;;21.16;59.21;101919.63;5033552;28;20025;-80
2022/07/24 02:48:27;;;;;;;0.10;0.10;;;;;;;21.14;59.42;101911.59;5032574;28;20073;-80
2022/07/24 02:50:53;;;;;;;0.30;0.30;;;;;;;21.14;59.42;101910.75;5032297;28;20045;-79
2022/07/24 02:53:19;;;;;;;0.15;0.15;;;;;;;21.12;59.88;101912.63;5032923;28;20453;-79
2022/07/24 02:55:45;;;;;;;0.38;0.38;;;;;;;21.11;59.92;101905.47;5033691;28;20167;-79
2022/07/24 02:58:12;;;;;;;0.00;0.00;;;;;;;21.10;59.79;101898.38;5033537;28;20036;-79
2022/07/24 03:00:38;;;;;;;0.10;0.10;;;;;;;21.06;59.69;101903.03;5033335;28;20075;-80
2022/07/24 03:03:04;;;;;;;0.10;0.10;;;;;;;21.05;60.04;101911.16;5030431;28;20044;-80
2022/07/24 03:05:30;;;;;;;0.03;0.03;;;;;;;21.01;60.46;101911.31;5032484;28;20036;-80
2022/07/24 03:07:56;;;;;;;0.15;0.15;;;;;;;21.01;60.29;101911.31;5032201;28;20509;-79
2022/07/24 03:10:23;;;;;;;1.10;0.70;;;;;;;20.98;61.16;101897.97;5032384;28;20030;-79
2022/07/24 03:12:49;;;;;;;0.10;0.10;;;;;;;20.98;60.54;101895.28;5032573;28;20373;-80
2022/07/24 03:15:15;;;;;;;0.20;0.20;;;;;;;20.96;60.39;101891.81;5032902;28;20462;-80
2022/07/24 03:17:52;;;;;;;0.20;0.20;;;;;;;21.00;60.71;101885.31;5031524;28;20125;-79
2022/07/24 03:20:20;;;;;;;0.00;0.00;;;;;;;20.94;60.79;101885.59;5032375;28;20057;-79
2022/07/24 03:22:47;;;;;;;0.03;0.03;;;;;;;20.92;60.86;101881.25;5032371;28;20037;-80
2022/07/24 03:25:13;;;;;;;0.20;0.20;;;;;;;20.90;60.99;101884.03;5033041;28;20025;-80
2022/07/24 03:27:39;;;;;;;0.20;0.20;;;;;;;20.87;61.68;101877.91;5032505;28;20091;-80
2022/07/24 03:30:07;;;;;;;0.00;0.00;;;;;;;20.87;61.10;101877.91;5033103;28;20457;-79
2022/07/24 03:32:34;;;;;;;0.20;0.20;;;;;;;20.79;61.86;101881.81;5030018;28;20526;-79
2022/07/24 03:35:00;;;;;;;0.63;0.63;;;;;;;20.77;61.59;101874.75;5032830;28;20057;-79
2022/07/24 03:37:26;;;;;;;0.10;0.10;;;;;;;20.77;60.93;101880.16;5032389;28;20057;-79
2022/07/24 03:39:52;;;;;;;0.10;0.10;;;;;;;20.71;61.61;101881.31;5032847;28;20036;-79
2022/07/24 03:42:18;;;;;;;0.15;0.15;;;;;;;20.71;60.95;101875.00;5031689;28;20033;-79
2022/07/24 03:44:45;;;;;;;0.13;0.13;;;;;;;20.64;61.33;101867.22;5032237;28;20032;-80
2022/07/24 03:47:11;;;;;;;0.00;0.00;;;;;;;20.63;60.93;101873.53;5031113;28;20083;-80
2022/07/24 03:49:37;;;;;;;0.20;0.20;;;;;;;20.64;60.66;101877.97;5031373;28;20038;-80
2022/07/24 03:52:04;;;;;;;0.20;0.20;;;;;;;20.58;61.45;101886.34;5031410;28;20439;-79
2022/07/24 03:54:30;;;;;;;1.75;0.98;;;;;;;20.57;60.86;101894.50;5031324;28;20029;-80
2022/07/24 03:56:56;;;;;;;0.77;0.43;;;;;;;20.54;60.66;101890.13;5031451;28;20036;-79
2022/07/24 03:59:22;;;;;;;0.20;0.20;;;;;;;20.53;60.62;101893.75;5031762;28;20105;-80
2022/07/24 04:01:49;;;;;;;2.60;1.45;;;;;;;20.44;60.58;101897.75;5030151;28;20060;-79
2022/07/24 04:04:15;;;;;;;0.10;0.10;;;;;;;20.47;60.32;101894.03;5031166;28;20026;-79
2022/07/24 04:06:41;;;;;;;0.10;0.10;;;;;;;20.48;60.02;101895.78;5031597;28;20107;-78
2022/07/24 04:09:08;;;;;;;0.85;0.57;;;;;;;20.48;60.31;101896.66;5031296;28;20129;-79
2022/07/24 04:11:34;;;;;;;0.10;0.10;;;;;;;20.51;59.94;101906.41;5042580;23;20058;-82
2022/07/24 04:14:00;;;;;;;0.00;0.00;;;;;;;20.48;59.86;101888.56;5016826;28;20037;-83
2022/07/24 04:16:27;;;;;;;0.10;0.10;;;;;;;20.48;60.19;101893.09;5015073;28;20696;-82
2022/07/24 04:18:53;;;;;;;0.20;0.20;;;;;;;20.42;60.62;101885.28;5015357;28;20117;-82
2022/07/24 04:21:19;;;;;;;0.10;0.10;;;;;;;20.42;60.34;101874.53;5015116;28;20087;-82
2022/07/24 04:23:45;;;;;;;0.30;0.30;;;;;;;20.41;60.59;101872.78;5016047;28;20056;-84
2022/07/24 04:26:12;;;;;;;0.10;0.10;;;;;;;20.41;60.22;101884.44;5016440;28;20600;-82
2022/07/24 04:28:38;;;;;;;0.00;0.00;;;;;;;20.42;60.46;101885.28;5015020;28;20033;-84
2022/07/24 04:31:05;;;;;;;0.05;0.05;;;;;;;20.43;60.53;101885.22;5014495;28;20121;-82
2022/07/24 04:33:31;;;;;;;0.10;0.10;;;;;;;20.41;61.24;101883.53;5016496;28;20036;-82
2022/07/24 04:35:57;;;;;;;0.10;0.10;;;;;;;20.42;61.07;101869.16;5016262;28;20029;-82
2022/07/24 04:38:23;;;;;;;0.13;0.13;;;;;;;20.44;61.13;101878.03;5016465;28;20086;-84
2022/07/24 04:40:49;;;;;;;1.55;1.20;;;;;;;20.42;61.62;101872.69;5014411;28;20070;-82
2022/07/24 04:43:15;;;;;;;0.70;0.70;;;;;;;20.44;61.13;101878.03;5013674;28;20030;-83
2022/07/24 04:45:42;;;;;;;0.15;0.15;;;;;;;20.42;61.57;101891.53;5014974;28;20456;-83
2022/07/24 04:48:08;;;;;;;0.10;0.10;;;;;;;20.42;61.89;101877.22;5015745;28;20033;-81
2022/07/24 04:50:34;;;;;;;0.65;0.63;;;;;;;20.46;60.74;101890.47;5015336;28;20129;-82
2022/07/24 04:53:00;;;;;;;0.10;0.10;;;;;;;20.49;61.48;101886.78;5015034;28;20062;-82
2022/07/24 04:55:26;;;;;;;0.30;0.30;;;;;;;20.47;61.84;101877.88;5015613;28;20030;-83
2022/07/24 04:57:52;;;;;;;0.08;0.08;;;;;;;20.52;60.94;101892.91;5014187;28;20065;-83
2022/07/24 05:00:19;;;;;;;0.47;0.47;;;;;;;20.50;60.84;101899.28;5014617;28;20037;-83
2022/07/24 05:02:45;;;;;;;0.00;0.00;;;;;;;20.54;60.89;101900.91;5015276;28;20033;-83
2022/07/24 05:05:11;;;;;;;0.03;0.03;;;;;;;20.60;61.00;101895.22;5015900;28;20477;-83
2022/07/24 05:07:37;;;;;;;0.10;0.10;;;;;;;20.62;61.02;101893.34;5015989;28;20079;-82
2022/07/24 05:10:05;;;;;;;0.30;0.30;;;;;;;20.62;61.39;101895.16;5016261;28;20116;-82
2022/07/24 05:12:31;;;;;;;0.00;0.00;;;;;;;20.65;60.51;101898.59;5014091;28;20110;-82
2022/07/24 05:14:57;;;;;;;0.00;0.00;;;;;;;20.69;61.22;101897.50;5015386;28;20033;-82
2022/07/24 05:17:23;;;;;;;0.00;0.00;;;;;;;20.75;61.15;101899.06;5015318;28;20030;-82
2022/07/24 05:19:49;;;;;;;0.20;0.20;;;;;;;20.76;61.71;101897.25;5015575;28;20088;-82
2022/07/24 05:22:15;;;;;;;3.72;0.90;;;;;;;20.74;61.30;101899.16;5014864;28;20026;-82
2022/07/24 05:24:41;;;;;;;0.00;0.00;;;;;;;20.78;61.13;101898.06;5015389;28;20171;-82
2022/07/24 05:27:08;;;;;;;0.00;0.00;;;;;;;20.79;61.21;101900.66;5014927;28;20022;-82
2022/07/24 05:29:34;;;;;;;0.35;0.35;;;;;;;20.82;61.07;101908.63;5014824;28;20034;-82
2022/07/24 05:32:00;;;;;;;0.00;0.00;;;;;;;20.82;61.68;101922.09;5015600;28;20033;-82
2022/07/24 05:34:26;;;;;;;0.03;0.03;;;;;;;20.94;60.95;101911.69;5016927;28;20096;-83
2022/07/24 05:36:52;;;;;;;1.65;1.55;;;;;;;20.95;60.77;101911.59;5016232;28;20088;-83
2022/07/24 05:39:18;;;;;;;0.00;0.00;;;;;;;21.03;60.32;101913.94;5015721;28;20109;-82
2022/07/24 05:41:44;;;;;;;0.77;0.77;;;;;;;20.99;60.18;101923.97;5013957;28;20401;-83
2022/07/24 05:44:10;;;;;;;0.00;0.00;;;;;;;21.07;59.82;101920.94;5015701;28;20080;-82
2022/07/24 05:46:36;;;;;;;0.38;0.38;;;;;;;21.10;60.07;101919.94;5015613;28;20037;-82
2022/07/24 05:49:02;;;;;;;0.10;0.10;;;;;;;21.19;59.96;101918.63;5015686;28;20041;-82
2022/07/24 05:51:29;;;;;;;0.10;0.10;;;;;;;21.16;59.73;101925.03;5017041;28;20025;-82
2022/07/24 05:53:55;;;;;;;0.00;0.00;;;;;;;21.27;59.28;101927.19;5019193;28;20026;-82
2022/07/24 05:56:21;;;;;;;0.00;0.00;;;;;;;21.25;59.18;101919.19;5016886;28;20463;-83
2022/07/24 05:58:47;;;;;;;0.10;0.10;;;;;;;21.39;59.38;101925.75;5019438;28;20508;-82
2022/07/24 06:01:13;;;;;;;0.00;0.00;;;;;;;21.42;58.66;101920.19;5018400;28;20026;-84
2022/07/24 06:03:40;;;;;;;0.90;0.90;;;;;;;21.50;58.55;101921.56;5018849;28;20033;-82
2022/07/24 06:06:06;;;;;;;0.00;0.00;;;;;;;21.61;58.43;101921.06;5018689;28;20026;-84
2022/07/24 06:08:32;;;;;;;0.10;0.10;;;;;;;21.55;57.97;101917.78;5019137;28;20061;-83
2022/07/24 06:10:58;;;;;;;0.22;0.22;;;;;;;21.72;57.58;101919.66;5016580;28;20113;-82
2022/07/24 06:13:25;;;;;;;0.00;0.00;;;;;;;21.84;57.43;101912.78;5018160;28;20042;-83
2022/07/24 06:15:51;;;;;;;0.80;0.80;;;;;;;22.02;57.40;101919.03;5019205;28;20033;-81
2022/07/24 06:18:17;;;;;;;0.00;0.00;;;;;;;22.12;56.62;101910.41;5018971;28;20072;-82
2022/07/24 06:20:43;;;;;;;0.00;0.00;;;;;;;22.33;56.46;101912.06;5017942;28;20021;-83
2022/07/24 06:23:09;;;;;;;0.10;0.10;;;;;;;22.36;55.89;101907.38;5019220;28;20140;-83
2022/07/24 06:25:35;;;;;;;0.00;0.00;;;;;;;22.52;55.63;101904.75;5017267;28;20041;-81
2022/07/24 06:28:01;;;;;;;0.20;0.20;;;;;;;22.55;55.27;101895.63;5017179;28;20034;-81
2022/07/24 06:30:28;;;;;;;0.00;0.00;;;;;;;22.59;55.02;101902.59;5018443;28;20401;-82
2022/07/24 06:33:14;;;;;;;0.00;0.00;;;;;;;22.68;54.81;101909.31;5000490;28;20045;-82
2022/07/24 06:35:40;;;;;;;0.10;0.10;;;;;;;22.51;54.37;101911.13;5022576;28;20037;-83
2022/07/24 06:38:06;;;;;;;0.20;0.20;;;;;;;22.57;54.73;101910.78;5018404;28;20041;-83
2022/07/24 06:40:34;;;;;;;0.57;0.57;;;;;;;22.55;54.77;101912.69;5018586;28;20523;-83
2022/07/24 06:43:00;;;;;;;0.10;0.10;;;;;;;22.67;54.37;101916.56;5017767;28;20053;-83
2022/07/24 06:45:26;;;;;;;0.10;0.10;;;;;;;22.73;54.55;101908.13;5018186;28;20038;-83
2022/07/24 06:47:52;;;;;;;0.47;0.47;;;;;;;22.85;54.37;101916.50;5019541;28;20425;-84
2022/07/24 06:50:18;;;;;;;0.10;0.10;;;;;;;22.91;53.87;101908.94;5019370;28;20044;-82
2022/07/24 06:52:45;;;;;;;0.00;0.00;;;;;;;22.92;53.48;101910.69;5018774;28;20030;-83
2022/07/24 06:55:12;;;;;;;0.10;0.10;;;;;;;23.02;53.40;101907.47;5018732;28;20060;-82
2022/07/24 06:57:38;;;;;;;0.20;0.20;;;;;;;23.30;53.11;101909.50;5018793;28;20037;-82
2022/07/24 07:00:08;;;;;;;0.70;0.70;;;;;;;23.52;53.15;101909.16;5018921;28;20029;-82
2022/07/24 07:02:34;;;;;;;0.10;0.10;;;;;;;23.65;52.73;101898.50;5017506;28;20026;-82
2022/07/24 07:05:00;;;;;;;0.10;0.10;;;;;;;23.74;53.00;101897.94;5019347;28;20029;-82
2022/07/24 07:07:26;;;;;;;0.10;0.10;;;;;;;23.82;52.58;101902.91;5019401;28;20026;-82
2022/07/24 07:09:52;;;;;;;0.17;0.17;;;;;;;23.78;52.65;101914.88;5017524;28;20041;-82
2022/07/24 07:12:19;;;;;;;0.52;0.52;;;;;;;23.79;52.63;101915.75;5017703;28;20037;-82
2022/07/24 07:14:45;;;;;;;0.20;0.20;;;;;;;23.77;52.55;101918.53;5018119;28;20030;-82
2022/07/24 07:17:11;;;;;;;0.10;0.10;;;;;;;23.74;52.91;101914.19;5017739;28;20034;-81
2022/07/24 07:19:37;;;;;;;0.10;0.10;;;;;;;23.75;52.86;101915.03;5017458;28;20440;-83
2022/07/24 07:22:03;;;;;;;0.00;0.00;;;;;;;23.75;52.99;101909.63;5017014;28;20034;-83
2022/07/24 07:24:29;;;;;;;0.00;0.00;;;;;;;23.79;52.71;101904.91;5016298;28;20029;-82
2022/07/24 07:26:55;;;;;;;0.10;0.10;;;;;;;23.80;52.70;101902.16;5016118;28;20041;-83
2022/07/24 07:29:21;;;;;;;0.75;0.32;;;;;;;23.83;52.32;101899.25;5017249;28;20189;-83
2022/07/24 07:31:47;;;;;;;1.38;0.85;;;;;;;23.92;52.26;101899.69;5015846;28;20034;-82
2022/07/24 07:34:13;;;;;;;0.10;0.10;;;;;;;23.92;52.42;101902.41;5017065;28;20029;-82
2022/07/24 07:36:40;;;;;;;0.40;0.40;;;;;;;23.99;51.72;101911.88;5017290;28;20034;-81
2022/07/24 07:39:06;;;;;;;0.20;0.20;;;;;;;23.98;51.64;101908.31;5015083;28;20041;-81
2022/07/24 07:41:32;;;;;;;0.50;0.50;;;;;;;24.05;51.69;101906.09;5014827;28;20030;-82
2022/07/24 07:43:58;;;;;;;0.10;0.10;;;;;;;24.06;51.78;101908.72;5022783;28;20469;-82
2022/07/24 07:46:25;;;;;;;0.00;0.00;;;;;;;24.21;51.55;101911.44;5021921;28;20108;-82
2022/07/24 07:48:51;;;;;;;0.10;0.10;;;;;;;24.29;51.62;101916.41;5015074;28;20033;-81
2022/07/24 07:51:26;;;;;;;0.22;0.22;;;;;;;24.33;51.74;101915.25;5013511;28;20034;-81
2022/07/24 07:54:01;;;;;;;0.17;0.17;;;;;;;24.52;51.26;101905.03;5010382;28;20034;-81
2022/07/24 07:56:30;;;;;;;0.10;0.10;;;;;;;24.46;50.69;101900.00;5017525;28;20563;-81
2022/07/24 07:58:57;;;;;;;0.35;0.35;;;;;;;24.44;49.85;101899.22;5015541;28;20033;-81
2022/07/24 08:01:23;;;;;;;0.20;0.20;;;;;;;24.58;49.15;101895.63;5016585;28;20034;-81
2022/07/24 08:03:49;;;;;;;0.40;0.40;;;;;;;24.68;48.86;101893.25;5018293;28;20109;-81
2022/07/24 08:06:15;;;;;;;0.10;0.10;;;;;;;24.73;48.92;101893.84;5023250;28;20026;-82
2022/07/24 08:08:41;;;;;;;0.10;0.10;;;;;;;24.84;48.78;101887.72;5022406;28;20116;-81
2022/07/24 08:11:07;;;;;;;0.00;0.00;;;;;;;24.89;49.13;101891.00;5021412;28;20049;-81
2022/07/24 08:13:33;;;;;;;0.00;0.00;;;;;;;24.90;46.90;101892.75;5016942;28;20095;-82
2022/07/24 08:15:59;;;;;;;0.00;0.00;;;;;;;25.01;47.92;101890.22;5018234;28;20057;-82
2022/07/24 08:18:26;;;;;;;0.10;0.10;;;;;;;25.17;47.39;101884.69;5017734;28;20077;-82
2022/07/24 08:20:52;;;;;;;0.13;0.13;;;;;;;25.30;47.84;101889.31;5016814;28;20029;-81
2022/07/24 08:23:18;;;;;;;0.10;0.10;;;;;;;25.31;47.54;101882.88;5015706;28;20044;-81
2022/07/24 08:25:44;;;;;;;0.10;0.10;;;;;;;25.23;47.18;101877.09;5016535;28;20025;-82
2022/07/24 08:28:10;;;;;;;0.10;0.10;;;;;;;25.34;47.36;101874.56;5016753;28;20061;-81
2022/07/24 08:30:37;;;;;;;0.20;0.20;;;;;;;25.38;46.19;101878.81;4999896;28;20026;-82
2022/07/24 08:33:03;;;;;;;0.10;0.10;;;;;;;25.44;46.19;101875.69;5020654;28;20029;-81
2022/07/24 08:35:29;;;;;;;0.00;0.00;;;;;;;25.59;46.68;101878.38;5023175;28;20049;-82
2022/07/24 08:37:55;;;;;;;0.20;0.20;;;;;;;25.70;47.30;101892.09;5020579;28;20037;-82
2022/07/24 08:40:23;;;;;;;0.10;0.10;;;;;;;25.80;45.93;101889.63;5028430;28;20022;-82
2022/07/24 08:42:49;;;;;;;0.10;0.10;;;;;;;25.90;46.02;101887.16;5019877;28;20037;-83
2022/07/24 08:45:16;;;;;;;3.03;1.20;;;;;;;25.92;44.39;101874.31;5017434;28;20029;-82
2022/07/24 08:47:42;;;;;;;0.10;0.10;;;;;;;26.02;44.85;101880.88;5015795;28;20026;-84
2022/07/24 08:50:10;;;;;;;0.10;0.10;;;;;;;26.14;44.75;101871.91;5020894;28;20057;-85
2022/07/24 08:52:37;;;;;;;6.35;0.80;;;;;;;26.30;44.91;101868.09;5018166;28;20084;-82
2022/07/24 08:55:03;;;;;;;0.30;0.30;;;;;;;26.36;44.66;101867.66;5016254;28;20021;-82
2022/07/24 08:57:30;;;;;;;0.10;0.10;;;;;;;26.32;43.72;101867.00;5020137;28;20368;-82
2022/07/24 08:59:56;;;;;;;0.10;0.10;;;;;;;26.09;43.07;101871.31;5021030;28;20029;-83
2022/07/24 09:02:22;;;;;;;0.10;0.10;;;;;;;26.16;42.73;101867.22;5018981;28;20046;-81
2022/07/24 09:04:51;;;;;;;0.63;0.63;;;;;;;26.24;43.75;101857.66;5026987;28;20014;-82
2022/07/24 09:07:23;;;;;;;0.20;0.20;;;;;;;26.29;43.63;101869.94;5030678;28;20026;-81
2022/07/24 09:10:10;;;;;;;0.30;0.30;;;;;;;26.44;44.24;101862.56;5027477;28;20036;-83
2022/07/24 09:12:40;;;;;;;0.10;0.10;;;;;;;26.47;43.84;101850.59;5021774;28;20072;-82
2022/07/24 09:15:16;;;;;;;0.85;0.30;;;;;;;26.60;43.06;101853.28;5020815;28;20033;-81
2022/07/24 09:17:52;;;;;;;0.13;0.13;;;;;;;26.82;43.10;101862.63;5016623;28;20053;-82
2022/07/24 09:20:19;;;;;;;0.10;0.10;;;;;;;26.90;42.74;101854.78;5020506;28;20041;-80
2022/07/24 09:22:45;;;;;;;0.95;0.32;;;;;;;26.82;40.33;101851.75;5020853;28;20383;-80
2022/07/24 09:35:50;;;;;;;0.10;0.10;;;;;;;26.96;41.13;101852.47;5123739;27;20137;-79
2022/07/24 09:38:19;;;;;;;0.20;0.20;;;;;;;27.27;41.55;101857.50;5091278;28;20086;-81
2022/07/24 09:46:05;;;;;;;0.10;0.10;;;;;;;27.56;40.13;101847.13;5071690;28;20402;-80
2022/07/24 09:48:35;;;;;;;0.20;0.20;;;;;;;27.76;40.17;101853.78;5073162;28;20033;-81
2022/07/24 09:53:37;;;;;;;0.10;0.10;;;;;;;27.78;39.95;101850.94;5107805;27;20408;-81
2022/07/24 09:56:07;;;;;;;0.57;0.57;;;;;;;27.93;40.36;101848.88;5122730;28;20398;-82
2022/07/24 09:58:39;;;;;;;0.20;0.20;;;;;;;28.00;39.93;101841.97;5125676;27;20054;-82
2022/07/24 10:01:06;;;;;;;;;;;;;;;28.28;40.37;101837.06;5127082;27;20028;-82
2022/07/24 10:03:38;;;;;;;0.10;0.10;;;;;;;28.28;40.71;101837.06;5123245;27;19943;-81
2022/07/24 10:06:05;;;;;;;;;;;;;;;28.35;39.70;101841.03;5129151;27;20034;-83
2022/07/24 10:08:33;;;;;;;0.08;0.08;;;;;;;28.28;40.05;101828.91;5125632;27;19912;-82
2022/07/24 10:11:00;;;;;;;0.10;0.10;;;;;;;28.49;40.33;101834.47;5125206;27;20035;-82
2022/07/24 10:13:28;;;;;;;0.25;0.25;;;;;;;28.54;39.61;101832.25;5088951;22;20081;-80
2022/07/24 10:16:19;;;;;;;0.17;0.17;;;;;;;28.69;39.59;101826.56;5052038;28;20112;-79
2022/07/24 10:18:50;;;;;;;0.00;0.00;;;;;;;28.52;38.25;101828.75;5051507;28;20031;-80
2022/07/24 10:21:20;;;;;;;0.10;0.10;;;;;;;28.71;38.90;101822.72;5051315;28;20027;-79
2022/07/24 10:26:35;;;;;;;0.10;0.10;;;;;;;28.82;37.24;101818.25;5070678;28;20422;-80
2022/07/24 10:29:09;;;;;;;0.00;0.00;;;;;;;28.98;38.50;101821.41;5073531;28;20071;-80
2022/07/24 10:31:39;;;;;;;3.45;1.40;;;;;;;29.17;38.74;101812.59;5073141;28;20441;-81
2022/07/24 10:34:26;;;;;;;0.10;0.10;;;;;;;29.32;38.20;101821.38;5073354;28;20089;-80
2022/07/24 10:37:09;;;;;;;0.10;0.10;;;;;;;29.38;37.36;101817.22;5073049;28;20024;-80
2022/07/24 10:51:05;;;;;;;0.32;0.32;;;;;;;29.46;36.43;101809.25;5113338;27;20384;-80
2022/07/24 10:56:27;;;;;;;0.45;0.45;;;;;;;29.65;36.51;101800.34;5055369;28;20397;-81
2022/07/24 11:04:27;;;;;;;0.10;0.10;;;;;;;29.86;37.34;101791.28;5095695;28;20324;-81
2022/07/24 11:09:51;;;;;;;0.10;0.10;;;;;;;29.92;35.38;101790.78;5122078;27;20389;-81
2022/07/24 11:12:28;;;;;;;0.10;0.10;;;;;;;30.01;35.55;101783.66;5126175;28;20042;-81
2022/07/24 11:15:53;;;;;;;0.10;0.10;;;;;;;30.09;34.89;101785.69;5134585;27;20126;-80
2022/07/24 11:17:47;;;;;;;0.40;0.30;;;;;;;30.09;35.53;101791.16;5134397;27;20031;-80
2022/07/24 11:20:15;;;;;;;0.10;0.10;;;;;;;30.18;35.25;101782.13;5129315;27;20122;-80
2022/07/24 11:25:24;;;;;;;0.10;0.10;;;;;;;30.27;34.20;101774.97;5113810;27;20360;-80
2022/07/24 11:30:30;;;;;;;0.13;0.13;;;;;;;30.36;35.14;101770.53;5113230;27;20392;-79
2022/07/24 11:32:58;;;;;;;0.30;0.30;;;;;;;30.47;34.21;101779.53;5112934;28;20027;-79
2022/07/24 11:35:33;;;;;;;0.20;0.20;;;;;;;30.56;34.29;101777.84;5115995;28;20046;-78
2022/07/24 11:38:01;;;;;;;0.08;0.08;;;;;;;30.75;34.42;101770.69;5121876;27;20094;-80
2022/07/24 11:40:27;;;;;;;0.10;0.10;;;;;;;30.71;34.27;101763.78;5138851;28;20027;-82
2022/07/24 11:42:57;;;;;;;0.47;0.47;;;;;;;30.81;33.95;101776.47;5130540;27;20023;-86
2022/07/24 11:45:23;;;;;;;0.30;0.30;;;;;;;30.76;33.25;101759.59;5136400;27;20023;-81
2022/07/24 11:47:50;;;;;;;0.20;0.20;;;;;;;30.78;33.73;101759.47;5140739;27;20092;-77
2022/07/24 11:50:22;;;;;;;0.10;0.10;;;;;;;30.94;33.89;101764.38;5114754;28;20511;-78
2022/07/24 11:52:49;;;;;;;0.03;0.03;;;;;;;31.04;34.11;101758.91;5114822;28;20033;-78
2022/07/24 11:55:17;;;;;;;0.40;0.40;;;;;;;31.22;33.75;101746.28;5119687;28;20114;-79
2022/07/24 11:57:46;;;;;;;0.45;0.45;;;;;;;30.92;33.12;101748.13;5114158;28;20046;-77
2022/07/24 12:00:16;;;;;;;0.00;0.00;;;;;;;31.25;33.63;101735.03;5120858;28;20379;-78
2022/07/24 12:02:46;;;;;;;0.10;0.10;;;;;;;31.25;33.68;101739.66;5119557;28;20060;-78
2022/07/24 12:05:13;;;;;;;0.03;0.03;;;;;;;31.39;33.33;101731.00;5120949;28;20054;-79
2022/07/24 12:07:39;;;;;;;0.00;0.00;;;;;;;31.44;33.22;101733.28;5108822;27;20040;-79
2022/07/24 12:10:06;;;;;;;0.10;0.10;;;;;;;31.39;32.45;101735.59;5109129;28;20028;-79
2022/07/24 12:12:36;;;;;;;0.00;0.00;;;;;;;31.27;32.18;101738.50;5109734;28;20111;-79
2022/07/24 12:18:03;;;;;;;0.10;0.10;;;;;;;31.73;33.74;101721.44;5069820;28;20373;-79
2022/07/24 12:23:15;;;;;;;0.00;0.00;;;;;;;31.89;34.02;101720.78;5070347;28;20407;-79